sensor_id;sensor_type;location;lat;lon;timestamp;pressure;altitude;pressure_sealevel;temperature;humidity
59971;BME280;45825;45.434;9.116;2023-03-26T00:00:56;99850.94;;;13.96;43.05
59971;BME280;45825;45.434;9.116;2023-03-26T00:03:21;99850.16;;;13.72;43.69
59971;BME280;45825;45.434;9.116;2023-03-26T00:05:47;99857.56;;;13.42;44.55
59971;BME280;45825;45.434;9.116;2023-03-26T00:08:13;99848.16;;;13.51;45.42
59971;BME280;45825;45.434;9.116;2023-03-26T00:10:40;99843.53;;;13.66;44.62
59971;BME280;45825;45.434;9.116;2023-03-26T00:13:06;99837.53;;;13.87;44.10
59971;BME280;45825;45.434;9.116;2023-03-26T00:15:33;99843.13;;;13.59;44.89
59971;BME280;45825;45.434;9.116;2023-03-26T00:17:58;99833.38;;;13.35;45.85
59971;BME280;45825;45.434;9.116;2023-03-26T00:20:25;99834.53;;;13.20;46.60
59971;BME280;45825;45.434;9.116;2023-03-26T00:22:52;99826.16;;;13.50;46.00
59971;BME280;45825;45.434;9.116;2023-03-26T00:25:18;99815.50;;;13.63;45.83
59971;BME280;45825;45.434;9.116;2023-03-26T00:27:44;99819.88;;;13.76;45.53
59971;BME280;45825;45.434;9.116;2023-03-26T00:30:10;99821.75;;;13.38;46.42
59971;BME280;45825;45.434;9.116;2023-03-26T00:32:37;99816.31;;;13.28;46.66
59971;BME280;45825;45.434;9.116;2023-03-26T00:35:03;99810.19;;;13.27;45.99
59971;BME280;45825;45.434;9.116;2023-03-26T00:37:29;99797.63;;;13.67;46.13
59971;BME280;45825;45.434;9.116;2023-03-26T00:39:56;99805.88;;;13.51;46.02
59971;BME280;45825;45.434;9.116;2023-03-26T00:42:24;99800.41;;;13.77;45.70
59971;BME280;45825;45.434;9.116;2023-03-26T00:44:51;99792.47;;;13.77;45.88
59971;BME280;45825;45.434;9.116;2023-03-26T00:47:21;99790.03;;;13.62;46.06
59971;BME280;45825;45.434;9.116;2023-03-26T00:49:47;99796.34;;;13.24;46.80
59971;BME280;45825;45.434;9.116;2023-03-26T00:52:14;99793.44;;;13.16;45.95
59971;BME280;45825;45.434;9.116;2023-03-26T00:54:44;99791.34;;;13.32;46.30
59971;BME280;45825;45.434;9.116;2023-03-26T00:57:10;99779.66;;;13.48;45.72
59971;BME280;45825;45.434;9.116;2023-03-26T00:59:39;99772.81;;;13.45;45.58
59971;BME280;45825;45.434;9.116;2023-03-26T01:02:06;99769.31;;;13.45;46.34
59971;BME280;45825;45.434;9.116;2023-03-26T01:04:35;99778.00;;;13.22;45.78
59971;BME280;45825;45.434;9.116;2023-03-26T01:07:15;99766.66;;;13.45;44.74
59971;BME280;45825;45.434;9.116;2023-03-26T01:09:48;99774.34;;;13.12;45.30
59971;BME280;45825;45.434;9.116;2023-03-26T01:12:18;99762.72;;;12.90;45.62
59971;BME280;45825;45.434;9.116;2023-03-26T01:14:49;99767.50;;;13.09;44.54
59971;BME280;45825;45.434;9.116;2023-03-26T01:17:15;99754.53;;;13.06;44.22
59971;BME280;45825;45.434;9.116;2023-03-26T01:22:51;99743.91;;;13.42;44.55
59971;BME280;45825;45.434;9.116;2023-03-26T01:25:22;99741.25;;;13.31;44.96
59971;BME280;45825;45.434;9.116;2023-03-26T01:27:51;99753.56;;;13.07;46.12
59971;BME280;45825;45.434;9.116;2023-03-26T01:33:03;99755.72;;;12.89;47.71
59971;BME280;45825;45.434;9.116;2023-03-26T01:36:24;99745.69;;;12.70;48.38
59971;BME280;45825;45.434;9.116;2023-03-26T01:41:20;99752.47;;;12.61;49.44
59971;BME280;45825;45.434;9.116;2023-03-26T01:43:52;99752.31;;;12.76;49.49
59971;BME280;45825;45.434;9.116;2023-03-26T01:46:21;99738.00;;;12.67;49.44
59971;BME280;45825;45.434;9.116;2023-03-26T01:48:50;99736.19;;;12.92;48.82
59971;BME280;45825;45.434;9.116;2023-03-26T01:51:33;99730.00;;;13.04;48.29
59971;BME280;45825;45.434;9.116;2023-03-26T01:54:04;99740.47;;;13.06;48.46
59971;BME280;45825;45.434;9.116;2023-03-26T01:56:49;99734.41;;;12.92;49.22
59971;BME280;45825;45.434;9.116;2023-03-26T02:02:27;99733.31;;;12.95;48.62
59971;BME280;45825;45.434;9.116;2023-03-26T02:05:00;99738.91;;;13.14;47.65
59971;BME280;45825;45.434;9.116;2023-03-26T02:07:46;99742.69;;;13.23;48.21
59971;BME280;45825;45.434;9.116;2023-03-26T02:10:35;99746.88;;;13.26;47.73
59971;BME280;45825;45.434;9.116;2023-03-26T02:13:02;99764.66;;;13.24;47.40
59971;BME280;45825;45.434;9.116;2023-03-26T02:15:29;99763.34;;;13.30;47.40
59971;BME280;45825;45.434;9.116;2023-03-26T02:17:54;99775.84;;;13.03;48.44
59971;BME280;45825;45.434;9.116;2023-03-26T02:20:20;99786.25;;;12.93;48.11
59971;BME280;45825;45.434;9.116;2023-03-26T02:22:46;99786.03;;;12.96;48.00
59971;BME280;45825;45.434;9.116;2023-03-26T02:25:17;99777.66;;;12.78;47.93
59971;BME280;45825;45.434;9.116;2023-03-26T02:27:44;99786.25;;;12.56;47.82
59971;BME280;45825;45.434;9.116;2023-03-26T02:30:14;99787.16;;;12.81;46.99
59971;BME280;45825;45.434;9.116;2023-03-26T02:32:39;99790.97;;;13.01;46.44
59971;BME280;45825;45.434;9.116;2023-03-26T02:35:05;99789.34;;;13.11;46.81
59971;BME280;45825;45.434;9.116;2023-03-26T02:37:31;99793.22;;;12.94;46.94
59971;BME280;45825;45.434;9.116;2023-03-26T02:40:17;99790.75;;;13.04;46.36
59971;BME280;45825;45.434;9.116;2023-03-26T02:42:45;99776.53;;;12.69;47.30
59971;BME280;45825;45.434;9.116;2023-03-26T02:45:11;99788.63;;;12.35;48.27
59971;BME280;45825;45.434;9.116;2023-03-26T02:47:36;99791.22;;;12.61;47.64
59971;BME280;45825;45.434;9.116;2023-03-26T02:50:03;99785.97;;;12.48;46.31
59971;BME280;45825;45.434;9.116;2023-03-26T02:52:30;99779.28;;;12.55;46.27
59971;BME280;45825;45.434;9.116;2023-03-26T02:54:56;99776.13;;;12.87;45.87
59971;BME280;45825;45.434;9.116;2023-03-26T02:57:22;99776.59;;;12.81;46.17
59971;BME280;45825;45.434;9.116;2023-03-26T02:59:48;99765.91;;;12.58;46.76
59971;BME280;45825;45.434;9.116;2023-03-26T03:02:15;99766.78;;;12.70;46.25
59971;BME280;45825;45.434;9.116;2023-03-26T03:04:41;99760.41;;;12.85;45.37
59971;BME280;45825;45.434;9.116;2023-03-26T03:07:06;99771.56;;;12.65;46.11
59971;BME280;45825;45.434;9.116;2023-03-26T03:09:32;99774.22;;;12.65;46.10
59971;BME280;45825;45.434;9.116;2023-03-26T03:11:57;99760.56;;;12.71;45.25
59971;BME280;45825;45.434;9.116;2023-03-26T03:14:22;99764.41;;;12.54;45.79
59971;BME280;45825;45.434;9.116;2023-03-26T03:16:48;99764.66;;;12.51;46.05
59971;BME280;45825;45.434;9.116;2023-03-26T03:19:13;99762.09;;;12.49;45.71
59971;BME280;45825;45.434;9.116;2023-03-26T03:21:39;99755.28;;;12.71;45.67
59971;BME280;45825;45.434;9.116;2023-03-26T03:24:05;99748.28;;;12.83;44.68
59971;BME280;45825;45.434;9.116;2023-03-26T03:26:31;99747.50;;;12.69;45.45
59971;BME280;45825;45.434;9.116;2023-03-26T03:28:59;99739.78;;;12.42;45.11
59971;BME280;45825;45.434;9.116;2023-03-26T03:31:25;99744.63;;;12.35;45.46
59971;BME280;45825;45.434;9.116;2023-03-26T03:33:52;99761.28;;;12.49;46.35
59971;BME280;45825;45.434;9.116;2023-03-26T03:36:20;99751.56;;;12.49;45.83
59971;BME280;45825;45.434;9.116;2023-03-26T03:38:51;99751.69;;;12.48;46.16
59971;BME280;45825;45.434;9.116;2023-03-26T03:41:17;99740.19;;;12.36;46.39
59971;BME280;45825;45.434;9.116;2023-03-26T03:43:43;99749.28;;;12.32;46.42
59971;BME280;45825;45.434;9.116;2023-03-26T03:46:08;99754.28;;;12.10;46.78
59971;BME280;45825;45.434;9.116;2023-03-26T03:48:35;99742.03;;;12.22;46.84
59971;BME280;45825;45.434;9.116;2023-03-26T03:51:03;99736.84;;;12.08;46.89
59971;BME280;45825;45.434;9.116;2023-03-26T03:53:31;99744.84;;;12.19;47.34
59971;BME280;45825;45.434;9.116;2023-03-26T03:56:01;99758.34;;;12.27;47.11
59971;BME280;45825;45.434;9.116;2023-03-26T03:58:26;99767.28;;;12.51;47.78
59971;BME280;45825;45.434;9.116;2023-03-26T04:00:53;99761.91;;;12.52;48.60
59971;BME280;45825;45.434;9.116;2023-03-26T04:03:29;99754.34;;;12.35;49.69
59971;BME280;45825;45.434;9.116;2023-03-26T04:05:55;99767.03;;;12.04;51.31
59971;BME280;45825;45.434;9.116;2023-03-26T04:08:21;99754.81;;;12.15;51.36
59971;BME280;45825;45.434;9.116;2023-03-26T04:10:47;99760.59;;;12.21;51.66
59971;BME280;45825;45.434;9.116;2023-03-26T04:13:13;99757.13;;;12.07;52.48
59971;BME280;45825;45.434;9.116;2023-03-26T04:15:40;99756.59;;;11.76;54.62
59971;BME280;45825;45.434;9.116;2023-03-26T04:18:05;99758.78;;;11.69;55.22
59971;BME280;45825;45.434;9.116;2023-03-26T04:20:35;99767.44;;;11.84;55.67
59971;BME280;45825;45.434;9.116;2023-03-26T04:23:02;99775.88;;;11.77;56.67
59971;BME280;45825;45.434;9.116;2023-03-26T04:25:28;99769.09;;;11.59;58.31
59971;BME280;45825;45.434;9.116;2023-03-26T04:27:54;99766.69;;;11.56;58.66
59971;BME280;45825;45.434;9.116;2023-03-26T04:30:22;99766.69;;;11.56;59.82
59971;BME280;45825;45.434;9.116;2023-03-26T04:32:48;99775.44;;;11.70;59.51
59971;BME280;45825;45.434;9.116;2023-03-26T04:35:15;99766.56;;;11.45;60.75
59971;BME280;45825;45.434;9.116;2023-03-26T04:37:41;99768.78;;;11.51;61.33
59971;BME280;45825;45.434;9.116;2023-03-26T04:40:18;99781.19;;;11.36;62.51
59971;BME280;45825;45.434;9.116;2023-03-26T04:42:44;99790.81;;;11.63;62.43
59971;BME280;45825;45.434;9.116;2023-03-26T04:45:14;99793.69;;;11.60;63.22
59971;BME280;45825;45.434;9.116;2023-03-26T04:47:40;99777.34;;;11.68;63.83
59971;BME280;45825;45.434;9.116;2023-03-26T04:50:07;99782.50;;;11.69;63.94
59971;BME280;45825;45.434;9.116;2023-03-26T04:52:33;99784.47;;;11.53;65.17
59971;BME280;45825;45.434;9.116;2023-03-26T04:54:59;99783.88;;;11.49;65.88
59971;BME280;45825;45.434;9.116;2023-03-26T04:57:36;99777.66;;;11.50;67.00
59971;BME280;45825;45.434;9.116;2023-03-26T05:00:05;99783.56;;;11.67;66.67
59971;BME280;45825;45.434;9.116;2023-03-26T05:02:41;99786.44;;;11.77;67.33
59971;BME280;45825;45.434;9.116;2023-03-26T05:05:07;99777.72;;;11.36;69.44
59971;BME280;45825;45.434;9.116;2023-03-26T05:07:34;99785.75;;;11.47;70.30
59971;BME280;45825;45.434;9.116;2023-03-26T05:10:00;99775.81;;;11.38;71.21
59971;BME280;45825;45.434;9.116;2023-03-26T05:12:27;99773.19;;;11.38;73.52
59971;BME280;45825;45.434;9.116;2023-03-26T05:14:53;99769.31;;;11.43;73.72
59971;BME280;45825;45.434;9.116;2023-03-26T05:17:18;99766.69;;;11.16;76.41
59971;BME280;45825;45.434;9.116;2023-03-26T05:19:45;99760.53;;;11.30;76.00
59971;BME280;45825;45.434;9.116;2023-03-26T05:22:11;99756.25;;;11.42;75.46
59971;BME280;45825;45.434;9.116;2023-03-26T05:24:36;99753.28;;;11.59;75.16
59971;BME280;45825;45.434;9.116;2023-03-26T05:27:01;99751.50;;;11.60;75.98
59971;BME280;45825;45.434;9.116;2023-03-26T05:29:27;99757.44;;;11.77;75.31
59971;BME280;45825;45.434;9.116;2023-03-26T05:31:52;99764.63;;;11.21;78.63
59971;BME280;45825;45.434;9.116;2023-03-26T05:34:19;99765.47;;;11.22;79.71
59971;BME280;45825;45.434;9.116;2023-03-26T05:36:48;99769.22;;;11.58;78.43
59971;BME280;45825;45.434;9.116;2023-03-26T05:39:13;99769.84;;;11.74;77.82
59971;BME280;45825;45.434;9.116;2023-03-26T05:41:39;99763.59;;;11.37;80.39
59971;BME280;45825;45.434;9.116;2023-03-26T05:44:04;99760.59;;;11.56;79.37
59971;BME280;45825;45.434;9.116;2023-03-26T05:46:30;99781.34;;;11.73;79.38
59971;BME280;45825;45.434;9.116;2023-03-26T05:48:55;99779.44;;;11.76;79.43
59971;BME280;45825;45.434;9.116;2023-03-26T05:51:20;99791.78;;;11.75;80.54
59971;BME280;45825;45.434;9.116;2023-03-26T05:53:47;99793.38;;;11.78;81.05
59971;BME280;45825;45.434;9.116;2023-03-26T05:56:12;99790.34;;;11.71;82.47
59971;BME280;45825;45.434;9.116;2023-03-26T05:58:38;99795.03;;;11.53;84.30
59971;BME280;45825;45.434;9.116;2023-03-26T06:01:09;99805.59;;;11.66;84.60
59971;BME280;45825;45.434;9.116;2023-03-26T06:03:37;99810.03;;;11.78;84.51
59971;BME280;45825;45.434;9.116;2023-03-26T06:06:07;99805.09;;;11.99;82.93
59971;BME280;45825;45.434;9.116;2023-03-26T06:08:32;99811.88;;;12.04;82.89
59971;BME280;45825;45.434;9.116;2023-03-26T06:11:00;99810.88;;;11.92;83.63
59971;BME280;45825;45.434;9.116;2023-03-26T06:13:26;99810.38;;;12.12;83.04
59971;BME280;45825;45.434;9.116;2023-03-26T06:15:52;99808.59;;;12.26;82.39
59971;BME280;45825;45.434;9.116;2023-03-26T06:18:17;99804.88;;;12.41;81.18
59971;BME280;45825;45.434;9.116;2023-03-26T06:20:45;99809.84;;;12.46;80.91
59971;BME280;45825;45.434;9.116;2023-03-26T06:23:10;99816.88;;;12.58;80.60
59971;BME280;45825;45.434;9.116;2023-03-26T06:25:36;99813.50;;;12.56;80.74
59971;BME280;45825;45.434;9.116;2023-03-26T06:28:02;99803.78;;;12.57;81.05
59971;BME280;45825;45.434;9.116;2023-03-26T06:30:27;99803.88;;;12.68;80.47
59971;BME280;45825;45.434;9.116;2023-03-26T06:32:53;99794.06;;;12.70;79.60
59971;BME280;45825;45.434;9.116;2023-03-26T06:35:18;99796.88;;;12.67;80.03
59971;BME280;45825;45.434;9.116;2023-03-26T06:37:43;99796.63;;;12.83;78.66
59971;BME280;45825;45.434;9.116;2023-03-26T06:40:09;99787.59;;;12.75;79.47
59971;BME280;45825;45.434;9.116;2023-03-26T06:42:34;99784.44;;;12.69;79.83
59971;BME280;45825;45.434;9.116;2023-03-26T06:45:02;99788.16;;;12.67;79.70
59971;BME280;45825;45.434;9.116;2023-03-26T06:47:27;99793.06;;;12.84;78.98
59971;BME280;45825;45.434;9.116;2023-03-26T06:49:53;99790.69;;;12.93;78.35
59971;BME280;45825;45.434;9.116;2023-03-26T06:52:19;99786.06;;;12.83;78.77
59971;BME280;45825;45.434;9.116;2023-03-26T06:54:44;99787.94;;;12.94;78.40
59971;BME280;45825;45.434;9.116;2023-03-26T06:57:10;99780.34;;;13.14;76.92
59971;BME280;45825;45.434;9.116;2023-03-26T06:59:35;99778.44;;;12.92;78.32
59971;BME280;45825;45.434;9.116;2023-03-26T07:02:00;99775.88;;;12.79;79.37
59971;BME280;45825;45.434;9.116;2023-03-26T07:04:26;99774.69;;;12.83;78.78
59971;BME280;45825;45.434;9.116;2023-03-26T07:06:51;99763.88;;;13.10;77.73
59971;BME280;45825;45.434;9.116;2023-03-26T07:09:16;99762.09;;;12.87;78.85
59971;BME280;45825;45.434;9.116;2023-03-26T07:11:42;99757.81;;;12.73;79.47
59971;BME280;45825;45.434;9.116;2023-03-26T07:14:08;99770.13;;;12.85;79.59
59971;BME280;45825;45.434;9.116;2023-03-26T07:16:34;99769.75;;;13.03;78.78
59971;BME280;45825;45.434;9.116;2023-03-26T07:18:59;99765.94;;;13.18;78.47
59971;BME280;45825;45.434;9.116;2023-03-26T07:21:25;99772.13;;;13.30;78.28
59971;BME280;45825;45.434;9.116;2023-03-26T07:23:50;99761.28;;;13.46;76.79
59971;BME280;45825;45.434;9.116;2023-03-26T07:26:34;99755.16;;;13.57;75.99
59971;BME280;45825;45.434;9.116;2023-03-26T07:31:52;99730.44;;;13.69;76.28
59971;BME280;45825;45.434;9.116;2023-03-26T07:34:39;99690.19;;;13.89;75.60
59971;BME280;45825;45.434;9.116;2023-03-26T07:37:24;99673.00;;;13.94;74.98
59971;BME280;45825;45.434;9.116;2023-03-26T07:42:49;99710.84;;;13.95;75.38
59971;BME280;45825;45.434;9.116;2023-03-26T07:45:25;99712.44;;;13.86;74.96
59971;BME280;45825;45.434;9.116;2023-03-26T07:47:57;99715.78;;;14.00;74.58
59971;BME280;45825;45.434;9.116;2023-03-26T07:50:23;99715.19;;;14.07;74.40
59971;BME280;45825;45.434;9.116;2023-03-26T07:52:49;99713.38;;;14.08;74.06
59971;BME280;45825;45.434;9.116;2023-03-26T07:55:15;99716.38;;;14.03;74.27
59971;BME280;45825;45.434;9.116;2023-03-26T08:00:27;99734.31;;;13.88;75.01
59971;BME280;45825;45.434;9.116;2023-03-26T08:03:02;99737.19;;;13.85;75.50
59971;BME280;45825;45.434;9.116;2023-03-26T08:05:33;99735.97;;;13.78;76.56
59971;BME280;45825;45.434;9.116;2023-03-26T08:10:56;99730.09;;;13.97;75.21
59971;BME280;45825;45.434;9.116;2023-03-26T08:16:06;99731.19;;;13.94;75.33
59971;BME280;45825;45.434;9.116;2023-03-26T08:18:42;99730.94;;;13.97;75.97
59971;BME280;45825;45.434;9.116;2023-03-26T08:21:14;99720.34;;;14.20;74.36
59971;BME280;45825;45.434;9.116;2023-03-26T08:26:43;99725.28;;;14.25;73.91
59971;BME280;45825;45.434;9.116;2023-03-26T08:29:49;99698.81;;;14.25;73.85
59971;BME280;45825;45.434;9.116;2023-03-26T08:32:18;99685.56;;;14.36;73.23
59971;BME280;45825;45.434;9.116;2023-03-26T08:34:44;99682.13;;;14.57;72.05
59971;BME280;45825;45.434;9.116;2023-03-26T08:37:10;99684.16;;;14.76;70.75
59971;BME280;45825;45.434;9.116;2023-03-26T08:39:36;99674.72;;;14.84;69.70
59971;BME280;45825;45.434;9.116;2023-03-26T08:42:18;99674.25;;;15.11;68.86
59971;BME280;45825;45.434;9.116;2023-03-26T08:48:00;99674.16;;;15.44;66.92
59971;BME280;45825;45.434;9.116;2023-03-26T08:51:14;99672.34;;;15.44;65.79
59971;BME280;45825;45.434;9.116;2023-03-26T09:11:05;99627.16;;;15.77;62.29
59971;BME280;45825;45.434;9.116;2023-03-26T09:22:13;99624.63;;;15.85;62.52
59971;BME280;45825;45.434;9.116;2023-03-26T09:27:37;99623.47;;;16.09;60.19
59971;BME280;45825;45.434;9.116;2023-03-26T09:35:27;99603.78;;;16.02;60.47
59971;BME280;45825;45.434;9.116;2023-03-26T09:38:19;99584.81;;;16.16;60.27
59971;BME280;45825;45.434;9.116;2023-03-26T09:41:32;99553.53;;;16.10;60.19
59971;BME280;45825;45.434;9.116;2023-03-26T09:52:50;99559.25;;;16.45;58.43
59971;BME280;45825;45.434;9.116;2023-03-26T09:55:25;99553.66;;;16.58;58.48
59971;BME280;45825;45.434;9.116;2023-03-26T09:57:55;99553.78;;;16.56;58.57
59971;BME280;45825;45.434;9.116;2023-03-26T10:03:14;99571.25;;;16.79;56.33
59971;BME280;45825;45.434;9.116;2023-03-26T10:06:23;99566.44;;;16.92;56.00
59971;BME280;45825;45.434;9.116;2023-03-26T10:11:50;99565.59;;;17.49;54.74
59971;BME280;45825;45.434;9.116;2023-03-26T10:15:03;99579.06;;;18.40;51.67
59971;BME280;45825;45.434;9.116;2023-03-26T10:23:18;99585.09;;;17.96;52.55
59971;BME280;45825;45.434;9.116;2023-03-26T10:36:36;99523.16;;;17.76;53.12
59971;BME280;45825;45.434;9.116;2023-03-26T10:50:41;99507.28;;;18.12;50.28
59971;BME280;45825;45.434;9.116;2023-03-26T10:53:27;99512.25;;;17.97;50.87
59971;BME280;45825;45.434;9.116;2023-03-26T10:56:15;99516.34;;;17.73;51.60
59971;BME280;45825;45.434;9.116;2023-03-26T10:58:42;99520.25;;;17.97;51.63
59971;BME280;45825;45.434;9.116;2023-03-26T11:01:18;99516.63;;;18.16;51.20
59971;BME280;45825;45.434;9.116;2023-03-26T11:03:51;99505.59;;;18.29;50.42
59971;BME280;45825;45.434;9.116;2023-03-26T11:09:24;99485.06;;;18.21;50.15
59971;BME280;45825;45.434;9.116;2023-03-26T11:20:36;99481.75;;;18.27;49.56
59971;BME280;45825;45.434;9.116;2023-03-26T11:34:15;99467.63;;;18.09;49.53
59971;BME280;45825;45.434;9.116;2023-03-26T11:36:47;99467.06;;;17.87;49.47
59971;BME280;45825;45.434;9.116;2023-03-26T11:39:21;99452.28;;;17.84;49.97
59971;BME280;45825;45.434;9.116;2023-03-26T11:41:51;99448.69;;;17.94;49.61
59971;BME280;45825;45.434;9.116;2023-03-26T11:46:48;99438.75;;;18.14;49.45
59971;BME280;45825;45.434;9.116;2023-03-26T11:49:17;99433.72;;;18.11;49.31
59971;BME280;45825;45.434;9.116;2023-03-26T11:51:46;99426.63;;;18.20;50.04
59971;BME280;45825;45.434;9.116;2023-03-26T11:54:13;99425.19;;;18.52;48.90
59971;BME280;45825;45.434;9.116;2023-03-26T11:56:51;99424.97;;;18.19;49.91
59971;BME280;45825;45.434;9.116;2023-03-26T12:02:23;99426.50;;;18.03;50.36
59971;BME280;45825;45.434;9.116;2023-03-26T12:04:44;99424.66;;;17.85;50.76
59971;BME280;45825;45.434;9.116;2023-03-26T12:09:56;99413.63;;;17.26;52.14
59971;BME280;45825;45.434;9.116;2023-03-26T12:12:26;99412.53;;;17.18;52.12
59971;BME280;45825;45.434;9.116;2023-03-26T12:14:53;99397.38;;;17.01;53.45
59971;BME280;45825;45.434;9.116;2023-03-26T12:17:32;99393.03;;;17.00;53.54
59971;BME280;45825;45.434;9.116;2023-03-26T12:19:59;99378.50;;;16.94;52.75
59971;BME280;45825;45.434;9.116;2023-03-26T12:22:31;99380.22;;;16.85;51.50
59971;BME280;45825;45.434;9.116;2023-03-26T12:27:51;99378.44;;;16.76;52.15
59971;BME280;45825;45.434;9.116;2023-03-26T12:30:26;99383.09;;;16.74;52.38
59971;BME280;45825;45.434;9.116;2023-03-26T12:32:56;99382.22;;;16.45;53.51
59971;BME280;45825;45.434;9.116;2023-03-26T12:35:24;99374.38;;;16.54;54.03
59971;BME280;45825;45.434;9.116;2023-03-26T12:38:38;99363.84;;;16.62;56.08
59971;BME280;45825;45.434;9.116;2023-03-26T12:40:38;99363.31;;;16.58;56.96
59971;BME280;45825;45.434;9.116;2023-03-26T12:44:13;99368.09;;;16.45;59.45
59971;BME280;45825;45.434;9.116;2023-03-26T12:46:33;99369.88;;;15.57;62.25
59971;BME280;45825;45.434;9.116;2023-03-26T12:49:04;99375.47;;;15.34;62.85
59971;BME280;45825;45.434;9.116;2023-03-26T12:56:58;99373.09;;;15.61;67.42
59971;BME280;45825;45.434;9.116;2023-03-26T13:00:08;99364.16;;;15.52;70.00
59971;BME280;45825;45.434;9.116;2023-03-26T13:16:00;99377.94;;;15.36;66.04
59971;BME280;45825;45.434;9.116;2023-03-26T13:18:34;99388.31;;;15.39;71.80
59971;BME280;45825;45.434;9.116;2023-03-26T13:24:16;99375.13;;;15.18;76.79
59971;BME280;45825;45.434;9.116;2023-03-26T13:32:32;99367.22;;;14.77;82.10
59971;BME280;45825;45.434;9.116;2023-03-26T13:46:12;99345.66;;;14.29;88.63
59971;BME280;45825;45.434;9.116;2023-03-26T13:48:49;99347.91;;;14.34;89.51
59971;BME280;45825;45.434;9.116;2023-03-26T13:51:42;99354.25;;;14.43;93.00
59971;BME280;45825;45.434;9.116;2023-03-26T13:54:31;99355.81;;;14.03;100.00
59971;BME280;45825;45.434;9.116;2023-03-26T13:59:32;99334.28;;;14.07;100.00
59971;BME280;45825;45.434;9.116;2023-03-26T14:02:08;99346.59;;;13.97;100.00
59971;BME280;45825;45.434;9.116;2023-03-26T14:04:39;99354.72;;;14.05;100.00
59971;BME280;45825;45.434;9.116;2023-03-26T14:07:21;99361.50;;;14.19;100.00
59971;BME280;45825;45.434;9.116;2023-03-26T14:15:35;99354.97;;;14.23;100.00
59971;BME280;45825;45.434;9.116;2023-03-26T14:23:45;99296.84;;;14.12;100.00
59971;BME280;45825;45.434;9.116;2023-03-26T14:32:14;99285.19;;;14.56;100.00
59971;BME280;45825;45.434;9.116;2023-03-26T14:40:51;99239.44;;;14.34;100.00
59971;BME280;45825;45.434;9.116;2023-03-26T14:49:21;99192.66;;;14.34;100.00
59971;BME280;45825;45.434;9.116;2023-03-26T14:54:32;99198.47;;;14.28;100.00
59971;BME280;45825;45.434;9.116;2023-03-26T15:45:12;99134.69;;;14.21;100.00
59971;BME280;45825;45.434;9.116;2023-03-26T15:53:22;99128.72;;;14.29;100.00
59971;BME280;45825;45.434;9.116;2023-03-26T15:56:29;99128.72;;;14.29;100.00
59971;BME280;45825;45.434;9.116;2023-03-26T15:59:11;99126.06;;;14.29;100.00
59971;BME280;45825;45.434;9.116;2023-03-26T16:04:40;99088.78;;;14.32;100.00
59971;BME280;45825;45.434;9.116;2023-03-26T16:07:43;99085.44;;;14.40;100.00
59971;BME280;45825;45.434;9.116;2023-03-26T16:10:26;99090.28;;;14.35;100.00
59971;BME280;45825;45.434;9.116;2023-03-26T16:15:37;99086.38;;;14.19;100.00
59971;BME280;45825;45.434;9.116;2023-03-26T16:18:15;99095.13;;;14.10;100.00
59971;BME280;45825;45.434;9.116;2023-03-26T16:33:46;99094.88;;;14.33;100.00
59971;BME280;45825;45.434;9.116;2023-03-26T16:36:29;99105.47;;;14.23;100.00
59971;BME280;45825;45.434;9.116;2023-03-26T16:41:27;99106.44;;;14.32;100.00
59971;BME280;45825;45.434;9.116;2023-03-26T16:46:57;99108.69;;;14.36;100.00
59971;BME280;45825;45.434;9.116;2023-03-26T16:52:53;99108.69;;;14.36;92.18
59971;BME280;45825;45.434;9.116;2023-03-26T16:55:33;99096.00;;;14.40;91.31
59971;BME280;45825;45.434;9.116;2023-03-26T17:06:08;99068.72;;;14.20;95.61
59971;BME280;45825;45.434;9.116;2023-03-26T17:08:43;99054.03;;;13.86;91.34
59971;BME280;45825;45.434;9.116;2023-03-26T17:20:26;99044.72;;;13.92;90.05
59971;BME280;45825;45.434;9.116;2023-03-26T17:23:25;99041.66;;;13.96;89.09
59971;BME280;45825;45.434;9.116;2023-03-26T17:25:59;99029.94;;;13.89;83.87
59971;BME280;45825;45.434;9.116;2023-03-26T17:31:00;99032.56;;;13.69;81.03
59971;BME280;45825;45.434;9.116;2023-03-26T17:33:33;99038.41;;;13.63;84.17
59971;BME280;45825;45.434;9.116;2023-03-26T17:41:08;99004.47;;;13.37;88.02
59971;BME280;45825;45.434;9.116;2023-03-26T17:43:48;99000.44;;;13.33;87.25
59971;BME280;45825;45.434;9.116;2023-03-26T17:49:05;99008.63;;;12.99;90.70
59971;BME280;45825;45.434;9.116;2023-03-26T17:51:51;99024.34;;;12.79;92.14
59971;BME280;45825;45.434;9.116;2023-03-26T17:54:36;99045.22;;;12.61;95.86
59971;BME280;45825;45.434;9.116;2023-03-26T17:57:21;99048.63;;;12.73;96.80
59971;BME280;45825;45.434;9.116;2023-03-26T17:59:49;99053.41;;;12.58;98.63
59971;BME280;45825;45.434;9.116;2023-03-26T18:02:36;99075.66;;;12.44;100.00
59971;BME280;45825;45.434;9.116;2023-03-26T18:05:09;99067.88;;;12.64;100.00
59971;BME280;45825;45.434;9.116;2023-03-26T18:10:57;99083.94;;;12.61;100.00
59971;BME280;45825;45.434;9.116;2023-03-26T18:16:22;99076.41;;;12.56;100.00
59971;BME280;45825;45.434;9.116;2023-03-26T18:18:56;99080.53;;;12.49;100.00
59971;BME280;45825;45.434;9.116;2023-03-26T18:21:29;99082.03;;;12.30;100.00
59971;BME280;45825;45.434;9.116;2023-03-26T18:23:56;99073.44;;;12.49;100.00
59971;BME280;45825;45.434;9.116;2023-03-26T18:26:30;99069.31;;;12.35;100.00
59971;BME280;45825;45.434;9.116;2023-03-26T18:29:25;99052.53;;;12.36;100.00
59971;BME280;45825;45.434;9.116;2023-03-26T18:32:08;99048.94;;;12.37;100.00
59971;BME280;45825;45.434;9.116;2023-03-26T18:34:46;99041.25;;;12.34;100.00
59971;BME280;45825;45.434;9.116;2023-03-26T18:37:26;99040.88;;;12.39;100.00
59971;BME280;45825;45.434;9.116;2023-03-26T18:39:57;99033.69;;;12.41;100.00
59971;BME280;45825;45.434;9.116;2023-03-26T18:42:24;99035.97;;;12.34;100.00
59971;BME280;45825;45.434;9.116;2023-03-26T18:44:51;99040.97;;;12.16;100.00
59971;BME280;45825;45.434;9.116;2023-03-26T18:47:17;99035.06;;;12.24;100.00
59971;BME280;45825;45.434;9.116;2023-03-26T18:49:44;99041.19;;;12.24;100.00
59971;BME280;45825;45.434;9.116;2023-03-26T18:52:18;99062.19;;;11.92;100.00